sensor_id;sensor_type;location;lat;lon;timestamp;pressure;altitude;pressure_sealevel;temperature;humidity
64253;BME280;50592;52.958;-7.470;2022-12-18T00:00:42;100130.53;;;1.49;100.00
64253;BME280;50592;52.958;-7.470;2022-12-18T00:03:09;100126.09;;;1.51;100.00
64253;BME280;50592;52.958;-7.470;2022-12-18T00:05:35;100131.22;;;1.53;100.00
64253;BME280;50592;52.958;-7.470;2022-12-18T00:08:02;100121.59;;;1.53;100.00
64253;BME280;50592;52.958;-7.470;2022-12-18T00:10:28;100110.19;;;1.56;100.00
64253;BME280;50592;52.958;-7.470;2022-12-18T00:12:54;100104.13;;;1.55;100.00
64253;BME280;50592;52.958;-7.470;2022-12-18T00:15:20;100103.38;;;1.53;100.00
64253;BME280;50592;52.958;-7.470;2022-12-18T00:17:46;100109.72;;;1.49;100.00
64253;BME280;50592;52.958;-7.470;2022-12-18T00:20:12;100117.53;;;1.49;100.00
64253;BME280;50592;52.958;-7.470;2022-12-18T00:22:37;100121.78;;;1.50;100.00
64253;BME280;50592;52.958;-7.470;2022-12-18T00:25:04;100113.97;;;1.50;100.00
64253;BME280;50592;52.958;-7.470;2022-12-18T00:27:29;100117.44;;;1.51;100.00
64253;BME280;50592;52.958;-7.470;2022-12-18T00:29:55;100114.81;;;1.51;100.00
64253;BME280;50592;52.958;-7.470;2022-12-18T00:32:21;100122.44;;;1.54;100.00
64253;BME280;50592;52.958;-7.470;2022-12-18T00:34:47;100105.97;;;1.53;100.00
64253;BME280;50592;52.958;-7.470;2022-12-18T00:37:14;100113.59;;;1.56;100.00
64253;BME280;50592;52.958;-7.470;2022-12-18T00:39:40;100094.34;;;1.59;100.00
64253;BME280;50592;52.958;-7.470;2022-12-18T00:42:06;100099.28;;;1.64;100.00
64253;BME280;50592;52.958;-7.470;2022-12-18T00:44:51;100087.81;;;1.66;100.00
64253;BME280;50592;52.958;-7.470;2022-12-18T00:47:17;100090.22;;;1.69;100.00
64253;BME280;50592;52.958;-7.470;2022-12-18T00:49:43;100082.31;;;1.71;100.00
64253;BME280;50592;52.958;-7.470;2022-12-18T00:52:09;100076.41;;;1.69;100.00
64253;BME280;50592;52.958;-7.470;2022-12-18T00:54:35;100073.69;;;1.70;100.00
64253;BME280;50592;52.958;-7.470;2022-12-18T00:57:00;100066.69;;;1.71;100.00
64253;BME280;50592;52.958;-7.470;2022-12-18T00:59:26;100061.47;;;1.71;100.00
64253;BME280;50592;52.958;-7.470;2022-12-18T01:01:52;100067.44;;;1.73;100.00
64253;BME280;50592;52.958;-7.470;2022-12-18T01:04:19;100058.16;;;1.69;100.00
64253;BME280;50592;52.958;-7.470;2022-12-18T01:06:45;100049.78;;;1.64;100.00
64253;BME280;50592;52.958;-7.470;2022-12-18T01:09:13;100055.19;;;1.60;100.00
64253;BME280;50592;52.958;-7.470;2022-12-18T01:11:39;100051.63;;;1.61;100.00
64253;BME280;50592;52.958;-7.470;2022-12-18T01:14:05;100042.59;;;1.67;100.00
64253;BME280;50592;52.958;-7.470;2022-12-18T01:16:31;100040.72;;;1.69;100.00
64253;BME280;50592;52.958;-7.470;2022-12-18T01:18:57;100024.81;;;1.74;100.00
64253;BME280;50592;52.958;-7.470;2022-12-18T01:21:23;100014.94;;;1.79;100.00
64253;BME280;50592;52.958;-7.470;2022-12-18T01:23:55;100012.13;;;1.82;100.00
64253;BME280;50592;52.958;-7.470;2022-12-18T01:26:24;100015.19;;;1.89;100.00
64253;BME280;50592;52.958;-7.470;2022-12-18T01:28:50;100015.69;;;1.94;100.00
64253;BME280;50592;52.958;-7.470;2022-12-18T01:31:20;100010.94;;;2.01;100.00
64253;BME280;50592;52.958;-7.470;2022-12-18T01:33:46;100005.63;;;2.03;100.00
64253;BME280;50592;52.958;-7.470;2022-12-18T01:36:29;100011.19;;;2.11;100.00
64253;BME280;50592;52.958;-7.470;2022-12-18T01:38:56;100009.81;;;2.05;100.00
64253;BME280;50592;52.958;-7.470;2022-12-18T01:41:28;100001.91;;;2.07;100.00
64253;BME280;50592;52.958;-7.470;2022-12-18T01:47:28;99984.69;;;2.17;100.00
64253;BME280;50592;52.958;-7.470;2022-12-18T01:49:57;99979.91;;;2.24;100.00
64253;BME280;50592;52.958;-7.470;2022-12-18T01:52:26;99972.44;;;2.32;100.00
64253;BME280;50592;52.958;-7.470;2022-12-18T01:54:54;99977.34;;;2.37;100.00
64253;BME280;50592;52.958;-7.470;2022-12-18T01:57:20;99965.00;;;2.39;100.00
64253;BME280;50592;52.958;-7.470;2022-12-18T01:59:50;99956.97;;;2.42;100.00
64253;BME280;50592;52.958;-7.470;2022-12-18T02:02:18;99956.75;;;2.45;100.00
64253;BME280;50592;52.958;-7.470;2022-12-18T02:04:45;99952.28;;;2.47;100.00
64253;BME280;50592;52.958;-7.470;2022-12-18T02:07:20;99956.16;;;2.55;100.00
64253;BME280;50592;52.958;-7.470;2022-12-18T02:09:57;99939.47;;;2.57;100.00
64253;BME280;50592;52.958;-7.470;2022-12-18T02:12:36;99933.81;;;2.64;100.00
64253;BME280;50592;52.958;-7.470;2022-12-18T02:17:54;99931.84;;;2.67;100.00
64253;BME280;50592;52.958;-7.470;2022-12-18T02:20:35;99931.84;;;2.67;100.00
64253;BME280;50592;52.958;-7.470;2022-12-18T02:26:20;99930.78;;;2.57;100.00
64253;BME280;50592;52.958;-7.470;2022-12-18T02:28:56;99928.38;;;2.54;100.00
64253;BME280;50592;52.958;-7.470;2022-12-18T02:31:27;99922.75;;;2.47;100.00
64253;BME280;50592;52.958;-7.470;2022-12-18T02:33:56;99920.78;;;2.51;100.00
64253;BME280;50592;52.958;-7.470;2022-12-18T02:36:24;99922.44;;;2.52;100.00
64253;BME280;50592;52.958;-7.470;2022-12-18T02:38:54;99918.78;;;2.54;100.00
64253;BME280;50592;52.958;-7.470;2022-12-18T02:41:25;99911.59;;;2.58;100.00
64253;BME280;50592;52.958;-7.470;2022-12-18T02:44:01;99908.47;;;2.66;100.00
64253;BME280;50592;52.958;-7.470;2022-12-18T02:46:31;99909.16;;;2.68;100.00
64253;BME280;50592;52.958;-7.470;2022-12-18T02:51:56;99891.94;;;2.78;100.00
64253;BME280;50592;52.958;-7.470;2022-12-18T02:54:38;99886.00;;;2.76;100.00
64253;BME280;50592;52.958;-7.470;2022-12-18T02:57:48;99881.28;;;2.81;100.00
64253;BME280;50592;52.958;-7.470;2022-12-18T03:05:51;99883.03;;;2.94;100.00
64253;BME280;50592;52.958;-7.470;2022-12-18T03:08:19;99886.47;;;2.94;100.00
64253;BME280;50592;52.958;-7.470;2022-12-18T03:10:58;99884.25;;;3.01;100.00
64253;BME280;50592;52.958;-7.470;2022-12-18T03:13:32;99877.16;;;3.03;100.00
64253;BME280;50592;52.958;-7.470;2022-12-18T03:15:59;99870.16;;;3.04;100.00
64253;BME280;50592;52.958;-7.470;2022-12-18T03:18:38;99853.94;;;3.12;100.00
64253;BME280;50592;52.958;-7.470;2022-12-18T03:21:09;99845.16;;;3.13;100.00
64253;BME280;50592;52.958;-7.470;2022-12-18T03:23:45;99847.06;;;3.10;100.00
64253;BME280;50592;52.958;-7.470;2022-12-18T03:26:17;99837.75;;;3.06;100.00
64253;BME280;50592;52.958;-7.470;2022-12-18T03:28:59;99827.44;;;3.05;100.00
64253;BME280;50592;52.958;-7.470;2022-12-18T03:31:28;99818.88;;;3.03;100.00
64253;BME280;50592;52.958;-7.470;2022-12-18T03:34:02;99818.63;;;3.06;100.00
64253;BME280;50592;52.958;-7.470;2022-12-18T03:36:40;99810.91;;;3.04;100.00
64253;BME280;50592;52.958;-7.470;2022-12-18T03:39:06;99803.81;;;3.06;100.00
64253;BME280;50592;52.958;-7.470;2022-12-18T03:42:01;99795.66;;;3.11;100.00
64253;BME280;50592;52.958;-7.470;2022-12-18T03:47:09;99783.22;;;3.15;100.00
64253;BME280;50592;52.958;-7.470;2022-12-18T03:52:52;99753.41;;;3.17;100.00
64253;BME280;50592;52.958;-7.470;2022-12-18T03:55:22;99757.59;;;3.20;100.00
64253;BME280;50592;52.958;-7.470;2022-12-18T03:57:57;99754.03;;;3.21;100.00
64253;BME280;50592;52.958;-7.470;2022-12-18T04:00:25;99749.75;;;3.20;100.00
64253;BME280;50592;52.958;-7.470;2022-12-18T04:03:04;99740.00;;;3.22;100.00
64253;BME280;50592;52.958;-7.470;2022-12-18T04:05:39;99741.81;;;3.21;100.00
64253;BME280;50592;52.958;-7.470;2022-12-18T04:08:07;99745.72;;;3.27;100.00
64253;BME280;50592;52.958;-7.470;2022-12-18T04:10:36;99742.03;;;3.30;100.00
64253;BME280;50592;52.958;-7.470;2022-12-18T04:13:02;99742.88;;;3.30;100.00
64253;BME280;50592;52.958;-7.470;2022-12-18T04:15:28;99733.88;;;3.34;100.00
64253;BME280;50592;52.958;-7.470;2022-12-18T04:17:56;99721.75;;;3.33;100.00
64253;BME280;50592;52.958;-7.470;2022-12-18T04:20:24;99728.44;;;3.38;100.00
64253;BME280;50592;52.958;-7.470;2022-12-18T04:22:50;99715.38;;;3.38;100.00
64253;BME280;50592;52.958;-7.470;2022-12-18T04:25:18;99700.50;;;3.38;100.00
64253;BME280;50592;52.958;-7.470;2022-12-18T04:27:56;99693.63;;;3.37;100.00
64253;BME280;50592;52.958;-7.470;2022-12-18T04:30:22;99686.63;;;3.38;100.00
64253;BME280;50592;52.958;-7.470;2022-12-18T04:32:48;99683.19;;;3.37;100.00
64253;BME280;50592;52.958;-7.470;2022-12-18T04:35:14;99677.00;;;3.38;100.00
64253;BME280;50592;52.958;-7.470;2022-12-18T04:37:43;99677.72;;;3.40;100.00
64253;BME280;50592;52.958;-7.470;2022-12-18T04:40:10;99665.38;;;3.42;100.00
64253;BME280;50592;52.958;-7.470;2022-12-18T04:42:40;99657.66;;;3.41;100.00
64253;BME280;50592;52.958;-7.470;2022-12-18T04:45:07;99649.00;;;3.40;100.00
64253;BME280;50592;52.958;-7.470;2022-12-18T04:47:33;99649.59;;;3.44;100.00
64253;BME280;50592;52.958;-7.470;2022-12-18T04:49:59;99645.06;;;3.46;100.00
64253;BME280;50592;52.958;-7.470;2022-12-18T04:52:24;99650.41;;;3.44;100.00
64253;BME280;50592;52.958;-7.470;2022-12-18T04:54:50;99629.97;;;3.38;100.00
64253;BME280;50592;52.958;-7.470;2022-12-18T04:57:16;99633.44;;;3.39;100.00
64253;BME280;50592;52.958;-7.470;2022-12-18T04:59:44;99617.28;;;3.33;100.00
64253;BME280;50592;52.958;-7.470;2022-12-18T05:02:10;99606.09;;;3.31;100.00
64253;BME280;50592;52.958;-7.470;2022-12-18T05:04:36;99587.38;;;3.26;100.00
64253;BME280;50592;52.958;-7.470;2022-12-18T05:07:01;99589.97;;;3.26;100.00
64253;BME280;50592;52.958;-7.470;2022-12-18T05:09:27;99586.63;;;3.24;100.00
64253;BME280;50592;52.958;-7.470;2022-12-18T05:11:53;99578.44;;;3.29;100.00
64253;BME280;50592;52.958;-7.470;2022-12-18T05:14:19;99568.00;;;3.29;100.00
64253;BME280;50592;52.958;-7.470;2022-12-18T05:16:45;99556.38;;;3.21;100.00
64253;BME280;50592;52.958;-7.470;2022-12-18T05:19:11;99555.91;;;3.28;100.00
64253;BME280;50592;52.958;-7.470;2022-12-18T05:21:36;99558.16;;;3.32;100.00
64253;BME280;50592;52.958;-7.470;2022-12-18T05:24:02;99549.84;;;3.27;100.00
64253;BME280;50592;52.958;-7.470;2022-12-18T05:26:28;99535.56;;;3.31;100.00
64253;BME280;50592;52.958;-7.470;2022-12-18T05:28:54;99537.03;;;3.35;100.00
64253;BME280;50592;52.958;-7.470;2022-12-18T05:31:21;99522.75;;;3.40;100.00
64253;BME280;50592;52.958;-7.470;2022-12-18T05:33:47;99505.19;;;3.42;100.00
64253;BME280;50592;52.958;-7.470;2022-12-18T05:36:15;99503.28;;;3.44;100.00
64253;BME280;50592;52.958;-7.470;2022-12-18T05:38:41;99498.88;;;3.44;100.00
64253;BME280;50592;52.958;-7.470;2022-12-18T05:41:08;99489.88;;;3.49;100.00
64253;BME280;50592;52.958;-7.470;2022-12-18T05:43:35;99491.75;;;3.58;100.00
64253;BME280;50592;52.958;-7.470;2022-12-18T05:46:11;99490.78;;;3.59;100.00
64253;BME280;50592;52.958;-7.470;2022-12-18T05:48:38;99479.47;;;3.58;100.00
64253;BME280;50592;52.958;-7.470;2022-12-18T05:51:07;99469.25;;;3.67;100.00
64253;BME280;50592;52.958;-7.470;2022-12-18T05:53:34;99462.50;;;3.64;100.00
64253;BME280;50592;52.958;-7.470;2022-12-18T05:56:06;99452.75;;;3.66;100.00
64253;BME280;50592;52.958;-7.470;2022-12-18T05:58:33;99441.47;;;3.66;100.00
64253;BME280;50592;52.958;-7.470;2022-12-18T06:01:07;99417.44;;;3.72;100.00
64253;BME280;50592;52.958;-7.470;2022-12-18T06:03:32;99427.06;;;3.71;100.00
64253;BME280;50592;52.958;-7.470;2022-12-18T06:05:58;99419.94;;;3.74;100.00
64253;BME280;50592;52.958;-7.470;2022-12-18T06:08:24;99415.28;;;3.77;100.00
64253;BME280;50592;52.958;-7.470;2022-12-18T06:10:51;99421.66;;;3.84;100.00
64253;BME280;50592;52.958;-7.470;2022-12-18T06:13:19;99422.81;;;3.92;100.00
64253;BME280;50592;52.958;-7.470;2022-12-18T06:15:44;99407.56;;;3.97;100.00
64253;BME280;50592;52.958;-7.470;2022-12-18T06:18:10;99403.91;;;4.00;100.00
64253;BME280;50592;52.958;-7.470;2022-12-18T06:20:36;99387.09;;;4.02;100.00
64253;BME280;50592;52.958;-7.470;2022-12-18T06:23:05;99382.59;;;4.04;100.00
64253;BME280;50592;52.958;-7.470;2022-12-18T06:25:32;99368.41;;;4.07;100.00
64253;BME280;50592;52.958;-7.470;2022-12-18T06:27:58;99376.41;;;4.05;100.00
64253;BME280;50592;52.958;-7.470;2022-12-18T06:30:24;99375.75;;;4.13;100.00
64253;BME280;50592;52.958;-7.470;2022-12-18T06:32:51;99375.81;;;4.23;100.00
64253;BME280;50592;52.958;-7.470;2022-12-18T06:35:16;99366.47;;;4.30;100.00
64253;BME280;50592;52.958;-7.470;2022-12-18T06:37:42;99350.13;;;4.38;100.00
64253;BME280;50592;52.958;-7.470;2022-12-18T06:40:08;99332.94;;;4.45;100.00
64253;BME280;50592;52.958;-7.470;2022-12-18T06:42:34;99330.63;;;4.52;100.00
64253;BME280;50592;52.958;-7.470;2022-12-18T06:45:00;99322.91;;;4.51;100.00
64253;BME280;50592;52.958;-7.470;2022-12-18T06:47:26;99325.41;;;4.52;100.00
64253;BME280;50592;52.958;-7.470;2022-12-18T06:49:52;99300.75;;;4.55;100.00
64253;BME280;50592;52.958;-7.470;2022-12-18T06:52:18;99307.50;;;4.57;100.00
64253;BME280;50592;52.958;-7.470;2022-12-18T06:54:43;99305.44;;;4.61;100.00
64253;BME280;50592;52.958;-7.470;2022-12-18T06:57:09;99299.09;;;4.64;100.00
64253;BME280;50592;52.958;-7.470;2022-12-18T06:59:35;99299.09;;;4.64;100.00
64253;BME280;50592;52.958;-7.470;2022-12-18T07:02:01;99298.16;;;4.65;100.00
64253;BME280;50592;52.958;-7.470;2022-12-18T07:04:30;99302.41;;;4.66;100.00
64253;BME280;50592;52.958;-7.470;2022-12-18T07:06:55;99296.91;;;4.69;100.00
64253;BME280;50592;52.958;-7.470;2022-12-18T07:09:21;99287.41;;;4.68;100.00
64253;BME280;50592;52.958;-7.470;2022-12-18T07:11:47;99278.47;;;4.70;100.00
64253;BME280;50592;52.958;-7.470;2022-12-18T07:14:13;99266.63;;;4.66;100.00
64253;BME280;50592;52.958;-7.470;2022-12-18T07:16:38;99255.03;;;4.69;100.00
64253;BME280;50592;52.958;-7.470;2022-12-18T07:19:04;99246.47;;;4.67;100.00
64253;BME280;50592;52.958;-7.470;2022-12-18T07:21:30;99233.00;;;4.62;100.00
64253;BME280;50592;52.958;-7.470;2022-12-18T07:23:56;99232.31;;;4.69;100.00
64253;BME280;50592;52.958;-7.470;2022-12-18T07:26:22;99221.97;;;4.68;100.00
64253;BME280;50592;52.958;-7.470;2022-12-18T07:28:48;99229.13;;;4.66;100.00
64253;BME280;50592;52.958;-7.470;2022-12-18T07:31:17;99212.19;;;4.70;100.00
64253;BME280;50592;52.958;-7.470;2022-12-18T07:33:44;99211.66;;;4.66;100.00
64253;BME280;50592;52.958;-7.470;2022-12-18T07:36:11;99207.50;;;4.64;100.00
64253;BME280;50592;52.958;-7.470;2022-12-18T07:38:37;99197.03;;;4.64;100.00
64253;BME280;50592;52.958;-7.470;2022-12-18T07:41:08;99187.81;;;4.59;100.00
64253;BME280;50592;52.958;-7.470;2022-12-18T07:43:35;99188.78;;;4.58;100.00
64253;BME280;50592;52.958;-7.470;2022-12-18T07:46:01;99190.97;;;4.53;100.00
64253;BME280;50592;52.958;-7.470;2022-12-18T07:48:30;99191.53;;;4.57;100.00
64253;BME280;50592;52.958;-7.470;2022-12-18T07:51:04;99190.97;;;4.53;100.00
64253;BME280;50592;52.958;-7.470;2022-12-18T07:53:30;99187.66;;;4.51;100.00
64253;BME280;50592;52.958;-7.470;2022-12-18T07:56:01;99192.06;;;4.51;100.00
64253;BME280;50592;52.958;-7.470;2022-12-18T07:58:28;99205.00;;;4.42;100.00
64253;BME280;50592;52.958;-7.470;2022-12-18T08:00:54;99178.72;;;4.54;100.00
64253;BME280;50592;52.958;-7.470;2022-12-18T08:03:20;99159.13;;;4.48;100.00
64253;BME280;50592;52.958;-7.470;2022-12-18T08:05:46;99165.75;;;4.42;100.00
64253;BME280;50592;52.958;-7.470;2022-12-18T08:08:14;99149.09;;;4.43;100.00
64253;BME280;50592;52.958;-7.470;2022-12-18T08:10:39;99154.03;;;4.37;100.00
64253;BME280;50592;52.958;-7.470;2022-12-18T08:13:05;99163.28;;;4.41;100.00
64253;BME280;50592;52.958;-7.470;2022-12-18T08:15:31;99151.81;;;4.32;100.00
64253;BME280;50592;52.958;-7.470;2022-12-18T08:17:57;99163.69;;;4.36;100.00
64253;BME280;50592;52.958;-7.470;2022-12-18T08:20:23;99150.75;;;4.34;100.00
64253;BME280;50592;52.958;-7.470;2022-12-18T08:22:48;99134.50;;;4.41;100.00
64253;BME280;50592;52.958;-7.470;2022-12-18T08:25:14;99136.41;;;4.39;100.00
64253;BME280;50592;52.958;-7.470;2022-12-18T08:27:40;99137.66;;;4.44;100.00
64253;BME280;50592;52.958;-7.470;2022-12-18T08:30:06;99130.63;;;4.45;100.00
64253;BME280;50592;52.958;-7.470;2022-12-18T08:32:33;99118.53;;;4.44;100.00
64253;BME280;50592;52.958;-7.470;2022-12-18T08:34:59;99108.06;;;4.44;100.00
64253;BME280;50592;52.958;-7.470;2022-12-18T08:37:25;99109.00;;;4.53;100.00
64253;BME280;50592;52.958;-7.470;2022-12-18T08:39:51;99124.16;;;4.59;100.00
64253;BME280;50592;52.958;-7.470;2022-12-18T08:42:16;99117.00;;;4.61;100.00
64253;BME280;50592;52.958;-7.470;2022-12-18T08:45:01;99106.81;;;4.68;100.00
64253;BME280;50592;52.958;-7.470;2022-12-18T08:47:27;99097.28;;;4.67;100.00
64253;BME280;50592;52.958;-7.470;2022-12-18T08:49:53;99077.03;;;4.69;100.00
64253;BME280;50592;52.958;-7.470;2022-12-18T08:52:18;99092.31;;;4.74;100.00
64253;BME280;50592;52.958;-7.470;2022-12-18T08:54:44;99088.47;;;4.78;100.00
64253;BME280;50592;52.958;-7.470;2022-12-18T08:57:10;99058.72;;;4.79;100.00
64253;BME280;50592;52.958;-7.470;2022-12-18T08:59:35;99065.03;;;4.86;100.00
64253;BME280;50592;52.958;-7.470;2022-12-18T09:02:01;99059.94;;;4.84;100.00
64253;BME280;50592;52.958;-7.470;2022-12-18T09:04:27;99058.56;;;4.90;100.00
64253;BME280;50592;52.958;-7.470;2022-12-18T09:06:56;99052.06;;;4.94;100.00
64253;BME280;50592;52.958;-7.470;2022-12-18T09:09:21;99036.19;;;4.96;100.00
64253;BME280;50592;52.958;-7.470;2022-12-18T09:11:47;99047.50;;;4.96;100.00
64253;BME280;50592;52.958;-7.470;2022-12-18T09:14:13;99032.31;;;5.00;100.00
64253;BME280;50592;52.958;-7.470;2022-12-18T09:16:39;99028.59;;;5.03;100.00
64253;BME280;50592;52.958;-7.470;2022-12-18T09:19:05;99024.72;;;5.07;100.00
64253;BME280;50592;52.958;-7.470;2022-12-18T09:21:34;99025.94;;;5.13;100.00
64253;BME280;50592;52.958;-7.470;2022-12-18T09:24:03;99007.38;;;5.06;100.00
64253;BME280;50592;52.958;-7.470;2022-12-18T09:26:29;99016.81;;;5.17;100.00
64253;BME280;50592;52.958;-7.470;2022-12-18T09:28:55;99006.19;;;5.18;100.00
64253;BME280;50592;52.958;-7.470;2022-12-18T09:31:22;99000.66;;;5.21;100.00
64253;BME280;50592;52.958;-7.470;2022-12-18T09:33:49;98992.53;;;5.25;100.00
64253;BME280;50592;52.958;-7.470;2022-12-18T09:36:16;98978.72;;;5.22;100.00
64253;BME280;50592;52.958;-7.470;2022-12-18T09:38:43;98980.63;;;5.30;100.00
64253;BME280;50592;52.958;-7.470;2022-12-18T09:43:57;98974.97;;;5.35;100.00
64253;BME280;50592;52.958;-7.470;2022-12-18T09:46:35;98961.88;;;5.35;100.00
64253;BME280;50592;52.958;-7.470;2022-12-18T09:49:07;98960.28;;;5.42;100.00
64253;BME280;50592;52.958;-7.470;2022-12-18T09:51:50;98954.66;;;5.37;100.00
64253;BME280;50592;52.958;-7.470;2022-12-18T09:54:26;98960.28;;;5.42;100.00
64253;BME280;50592;52.958;-7.470;2022-12-18T09:56:55;98968.44;;;5.39;100.00
64253;BME280;50592;52.958;-7.470;2022-12-18T09:59:25;98943.72;;;5.42;100.00
64253;BME280;50592;52.958;-7.470;2022-12-18T10:01:52;98953.72;;;5.38;100.00
64253;BME280;50592;52.958;-7.470;2022-12-18T10:04:18;98930.63;;;5.42;100.00
64253;BME280;50592;52.958;-7.470;2022-12-18T10:06:49;98930.34;;;5.45;100.00
64253;BME280;50592;52.958;-7.470;2022-12-18T10:09:37;98928.09;;;5.50;100.00
64253;BME280;50592;52.958;-7.470;2022-12-18T10:12:35;98915.97;;;5.49;100.00
64253;BME280;50592;52.958;-7.470;2022-12-18T10:15:29;98907.97;;;5.51;100.00
64253;BME280;50592;52.958;-7.470;2022-12-18T10:26:10;98871.78;;;5.54;100.00
64253;BME280;50592;52.958;-7.470;2022-12-18T10:28:39;98841.53;;;5.60;100.00
64253;BME280;50592;52.958;-7.470;2022-12-18T10:31:26;98853.19;;;5.66;100.00
64253;BME280;50592;52.958;-7.470;2022-12-18T10:33:53;98849.31;;;5.70;100.00
64253;BME280;50592;52.958;-7.470;2022-12-18T10:36:20;98837.22;;;5.77;100.00
64253;BME280;50592;52.958;-7.470;2022-12-18T10:38:46;98838.41;;;5.83;100.00
64253;BME280;50592;52.958;-7.470;2022-12-18T10:46:37;98837.34;;;5.94;100.00
64253;BME280;50592;52.958;-7.470;2022-12-18T10:49:03;98843.63;;;6.01;100.00
64253;BME280;50592;52.958;-7.470;2022-12-18T10:51:33;98840.41;;;6.07;100.00
64253;BME280;50592;52.958;-7.470;2022-12-18T10:54:04;98818.13;;;6.12;100.00
64253;BME280;50592;52.958;-7.470;2022-12-18T10:56:33;98810.47;;;6.18;100.00
64253;BME280;50592;52.958;-7.470;2022-12-18T10:59:05;98821.16;;;6.25;100.00
64253;BME280;50592;52.958;-7.470;2022-12-18T11:01:58;98813.66;;;6.30;100.00
64253;BME280;50592;52.958;-7.470;2022-12-18T11:04:29;98816.44;;;6.37;100.00
64253;BME280;50592;52.958;-7.470;2022-12-18T11:09:29;98792.03;;;6.45;100.00
64253;BME280;50592;52.958;-7.470;2022-12-18T11:11:59;98798.63;;;6.49;100.00
64253;BME280;50592;52.958;-7.470;2022-12-18T11:14:28;98796.50;;;6.53;100.00
64253;BME280;50592;52.958;-7.470;2022-12-18T11:16:55;98792.56;;;6.57;100.00
64253;BME280;50592;52.958;-7.470;2022-12-18T11:19:35;98785.22;;;6.61;100.00
64253;BME280;50592;52.958;-7.470;2022-12-18T11:22:20;98780.28;;;6.66;100.00
64253;BME280;50592;52.958;-7.470;2022-12-18T11:27:28;98768.34;;;6.72;100.00
64253;BME280;50592;52.958;-7.470;2022-12-18T11:32:38;98763.28;;;6.78;100.00
64253;BME280;50592;52.958;-7.470;2022-12-18T11:37:34;98757.84;;;6.88;100.00
64253;BME280;50592;52.958;-7.470;2022-12-18T11:50:19;98725.34;;;7.06;100.00
64253;BME280;50592;52.958;-7.470;2022-12-18T11:52:47;98716.34;;;7.09;100.00
64253;BME280;50592;52.958;-7.470;2022-12-18T11:55:30;98712.22;;;7.14;100.00
64253;BME280;50592;52.958;-7.470;2022-12-18T11:58:03;98717.81;;;7.19;100.00
64253;BME280;50592;52.958;-7.470;2022-12-18T12:00:31;98713.03;;;7.23;100.00
64253;BME280;50592;52.958;-7.470;2022-12-18T12:03:42;98701.06;;;7.29;100.00
64253;BME280;50592;52.958;-7.470;2022-12-18T12:16:49;98670.75;;;7.58;100.00
64253;BME280;50592;52.958;-7.470;2022-12-18T12:22:21;98664.75;;;7.81;100.00
64253;BME280;50592;52.958;-7.470;2022-12-18T12:24:53;98657.03;;;7.79;100.00
64253;BME280;50592;52.958;-7.470;2022-12-18T12:33:08;98627.69;;;7.99;100.00
64253;BME280;50592;52.958;-7.470;2022-12-18T12:35:32;98634.41;;;8.02;100.00
64253;BME280;50592;52.958;-7.470;2022-12-18T12:38:08;98631.72;;;8.18;100.00
64253;BME280;50592;52.958;-7.470;2022-12-18T12:40:48;98621.09;;;8.27;100.00
64253;BME280;50592;52.958;-7.470;2022-12-18T12:46:06;98598.81;;;8.38;100.00
64253;BME280;50592;52.958;-7.470;2022-12-18T12:51:04;98597.31;;;8.43;100.00
64253;BME280;50592;52.958;-7.470;2022-12-18T12:53:36;98587.25;;;8.47;100.00
64253;BME280;50592;52.958;-7.470;2022-12-18T12:56:04;98591.50;;;8.56;100.00
64253;BME280;50592;52.958;-7.470;2022-12-18T13:04:42;98586.97;;;8.65;100.00
64253;BME280;50592;52.958;-7.470;2022-12-18T13:07:20;98583.44;;;8.73;100.00
64253;BME280;50592;52.958;-7.470;2022-12-18T13:12:36;98563.28;;;8.80;100.00
64253;BME280;50592;52.958;-7.470;2022-12-18T13:15:23;98573.00;;;8.95;100.00
64253;BME280;50592;52.958;-7.470;2022-12-18T13:18:04;98577.91;;;8.98;100.00
64253;BME280;50592;52.958;-7.470;2022-12-18T13:34:20;98558.31;;;9.16;100.00
64253;BME280;50592;52.958;-7.470;2022-12-18T13:36:47;98548.94;;;9.13;100.00
64253;BME280;50592;52.958;-7.470;2022-12-18T13:41:50;98543.22;;;9.25;100.00
64253;BME280;50592;52.958;-7.470;2022-12-18T13:44:39;98534.94;;;9.28;100.00
64253;BME280;50592;52.958;-7.470;2022-12-18T13:47:42;98521.75;;;9.28;100.00
64253;BME280;50592;52.958;-7.470;2022-12-18T13:50:20;98513.50;;;9.31;100.00
64253;BME280;50592;52.958;-7.470;2022-12-18T13:52:57;98500.75;;;9.35;100.00
64253;BME280;50592;52.958;-7.470;2022-12-18T13:55:26;98504.47;;;9.40;100.00
64253;BME280;50592;52.958;-7.470;2022-12-18T13:58:03;98502.91;;;9.46;100.00
64253;BME280;50592;52.958;-7.470;2022-12-18T14:00:30;98497.81;;;9.45;100.00
64253;BME280;50592;52.958;-7.470;2022-12-18T14:02:57;98496.28;;;9.50;100.00
64253;BME280;50592;52.958;-7.470;2022-12-18T14:05:26;98490.63;;;9.53;100.00
64253;BME280;50592;52.958;-7.470;2022-12-18T14:07:53;98468.31;;;9.56;100.00
64253;BME280;50592;52.958;-7.470;2022-12-18T14:10:20;98465.69;;;9.56;100.00
64253;BME280;50592;52.958;-7.470;2022-12-18T14:12:49;98457.03;;;9.62;100.00
64253;BME280;50592;52.958;-7.470;2022-12-18T14:15:31;98454.19;;;9.64;100.00
64253;BME280;50592;52.958;-7.470;2022-12-18T14:18:01;98450.56;;;9.65;100.00
64253;BME280;50592;52.958;-7.470;2022-12-18T14:20:29;98439.66;;;9.68;100.00
64253;BME280;50592;52.958;-7.470;2022-12-18T14:22:57;98448.34;;;9.68;100.00
64253;BME280;50592;52.958;-7.470;2022-12-18T14:25:25;98440.25;;;9.70;100.00
64253;BME280;50592;52.958;-7.470;2022-12-18T14:28:03;98441.09;;;9.71;100.00
64253;BME280;50592;52.958;-7.470;2022-12-18T14:30:42;98439.09;;;9.73;100.00
64253;BME280;50592;52.958;-7.470;2022-12-18T14:35:42;98432.59;;;9.75;100.00
64253;BME280;50592;52.958;-7.470;2022-12-18T14:41:03;98423.06;;;9.74;100.00
64253;BME280;50592;52.958;-7.470;2022-12-18T14:43:33;98410.84;;;9.73;100.00
64253;BME280;50592;52.958;-7.470;2022-12-18T14:46:00;98404.59;;;9.74;100.00
64253;BME280;50592;52.958;-7.470;2022-12-18T14:48:39;98403.84;;;9.80;100.00
64253;BME280;50592;52.958;-7.470;2022-12-18T14:51:20;98400.38;;;9.80;100.00
64253;BME280;50592;52.958;-7.470;2022-12-18T14:53:49;98401.63;;;9.84;100.00
64253;BME280;50592;52.958;-7.470;2022-12-18T14:56:30;98396.16;;;9.86;100.00